sensor_id;sensor_type;location;lat;lon;timestamp;P1;durP1;ratioP1;P2;durP2;ratioP2
57457;SDS011;43304;52.332;6.110;2022-07-29T00:00:59;0.00;;;0.00;;
57457;SDS011;43304;52.332;6.110;2022-07-29T00:03:26;0.00;;;0.00;;
57457;SDS011;43304;52.332;6.110;2022-07-29T00:05:53;0.00;;;0.00;;
57457;SDS011;43304;52.332;6.110;2022-07-29T00:08:20;0.00;;;0.00;;
57457;SDS011;43304;52.332;6.110;2022-07-29T00:10:47;0.00;;;0.00;;
57457;SDS011;43304;52.332;6.110;2022-07-29T00:13:14;0.00;;;0.00;;
57457;SDS011;43304;52.332;6.110;2022-07-29T00:15:41;0.00;;;0.00;;
57457;SDS011;43304;52.332;6.110;2022-07-29T00:18:08;0.00;;;0.00;;
57457;SDS011;43304;52.332;6.110;2022-07-29T00:20:35;0.10;;;0.10;;
57457;SDS011;43304;52.332;6.110;2022-07-29T00:23:02;0.00;;;0.00;;
57457;SDS011;43304;52.332;6.110;2022-07-29T00:25:29;0.00;;;0.00;;
57457;SDS011;43304;52.332;6.110;2022-07-29T00:27:59;0.00;;;0.00;;
57457;SDS011;43304;52.332;6.110;2022-07-29T00:30:26;0.20;;;0.20;;
57457;SDS011;43304;52.332;6.110;2022-07-29T00:32:53;0.00;;;0.00;;
57457;SDS011;43304;52.332;6.110;2022-07-29T00:35:20;0.00;;;0.00;;
57457;SDS011;43304;52.332;6.110;2022-07-29T00:38:05;0.00;;;0.00;;
57457;SDS011;43304;52.332;6.110;2022-07-29T00:40:33;0.00;;;0.00;;
57457;SDS011;43304;52.332;6.110;2022-07-29T00:43:00;0.00;;;0.00;;
57457;SDS011;43304;52.332;6.110;2022-07-29T00:45:28;0.00;;;0.00;;
57457;SDS011;43304;52.332;6.110;2022-07-29T00:47:56;0.00;;;0.00;;
57457;SDS011;43304;52.332;6.110;2022-07-29T00:50:23;0.70;;;0.70;;
57457;SDS011;43304;52.332;6.110;2022-07-29T00:52:50;0.00;;;0.00;;
57457;SDS011;43304;52.332;6.110;2022-07-29T00:55:18;0.00;;;0.00;;
57457;SDS011;43304;52.332;6.110;2022-07-29T00:57:45;0.00;;;0.00;;
57457;SDS011;43304;52.332;6.110;2022-07-29T01:00:17;0.30;;;0.30;;
57457;SDS011;43304;52.332;6.110;2022-07-29T01:02:46;0.00;;;0.00;;
57457;SDS011;43304;52.332;6.110;2022-07-29T01:05:18;0.00;;;0.00;;
57457;SDS011;43304;52.332;6.110;2022-07-29T01:07:46;0.00;;;0.00;;
57457;SDS011;43304;52.332;6.110;2022-07-29T01:10:16;0.00;;;0.00;;
57457;SDS011;43304;52.332;6.110;2022-07-29T01:12:43;0.00;;;0.00;;
57457;SDS011;43304;52.332;6.110;2022-07-29T01:15:11;0.00;;;0.00;;
57457;SDS011;43304;52.332;6.110;2022-07-29T01:17:42;0.00;;;0.00;;
57457;SDS011;43304;52.332;6.110;2022-07-29T01:20:23;0.00;;;0.00;;
57457;SDS011;43304;52.332;6.110;2022-07-29T01:23:01;0.00;;;0.00;;
57457;SDS011;43304;52.332;6.110;2022-07-29T01:25:47;0.00;;;0.00;;
57457;SDS011;43304;52.332;6.110;2022-07-29T01:31:02;0.00;;;0.00;;
57457;SDS011;43304;52.332;6.110;2022-07-29T01:33:33;0.00;;;0.00;;
57457;SDS011;43304;52.332;6.110;2022-07-29T01:38:59;0.00;;;0.00;;
57457;SDS011;43304;52.332;6.110;2022-07-29T01:41:31;0.00;;;0.00;;
57457;SDS011;43304;52.332;6.110;2022-07-29T01:44:01;0.00;;;0.00;;
57457;SDS011;43304;52.332;6.110;2022-07-29T01:46:36;0.00;;;0.00;;
57457;SDS011;43304;52.332;6.110;2022-07-29T01:49:08;0.00;;;0.00;;
57457;SDS011;43304;52.332;6.110;2022-07-29T01:51:40;0.00;;;0.00;;
57457;SDS011;43304;52.332;6.110;2022-07-29T01:54:12;0.00;;;0.00;;
57457;SDS011;43304;52.332;6.110;2022-07-29T01:56:43;0.00;;;0.00;;
57457;SDS011;43304;52.332;6.110;2022-07-29T01:59:12;0.00;;;0.00;;
57457;SDS011;43304;52.332;6.110;2022-07-29T02:01:39;0.00;;;0.00;;
57457;SDS011;43304;52.332;6.110;2022-07-29T02:04:07;0.00;;;0.00;;
57457;SDS011;43304;52.332;6.110;2022-07-29T02:06:37;0.00;;;0.00;;
57457;SDS011;43304;52.332;6.110;2022-07-29T02:09:05;0.00;;;0.00;;
57457;SDS011;43304;52.332;6.110;2022-07-29T02:11:34;0.00;;;0.00;;
57457;SDS011;43304;52.332;6.110;2022-07-29T02:14:02;0.00;;;0.00;;
57457;SDS011;43304;52.332;6.110;2022-07-29T02:16:30;0.00;;;0.00;;
57457;SDS011;43304;52.332;6.110;2022-07-29T02:18:59;0.50;;;0.50;;
57457;SDS011;43304;52.332;6.110;2022-07-29T02:21:28;0.00;;;0.00;;
57457;SDS011;43304;52.332;6.110;2022-07-29T02:23:57;0.00;;;0.00;;
57457;SDS011;43304;52.332;6.110;2022-07-29T02:26:26;0.00;;;0.00;;
57457;SDS011;43304;52.332;6.110;2022-07-29T02:28:55;0.00;;;0.00;;
57457;SDS011;43304;52.332;6.110;2022-07-29T02:31:24;0.00;;;0.00;;
57457;SDS011;43304;52.332;6.110;2022-07-29T02:33:53;0.00;;;0.00;;
57457;SDS011;43304;52.332;6.110;2022-07-29T02:36:21;0.00;;;0.00;;
57457;SDS011;43304;52.332;6.110;2022-07-29T02:38:48;0.00;;;0.00;;
57457;SDS011;43304;52.332;6.110;2022-07-29T02:41:20;0.00;;;0.00;;
57457;SDS011;43304;52.332;6.110;2022-07-29T02:43:52;0.00;;;0.00;;
57457;SDS011;43304;52.332;6.110;2022-07-29T02:46:27;0.00;;;0.00;;
57457;SDS011;43304;52.332;6.110;2022-07-29T02:49:16;0.00;;;0.00;;
57457;SDS011;43304;52.332;6.110;2022-07-29T02:51:53;0.00;;;0.00;;
57457;SDS011;43304;52.332;6.110;2022-07-29T02:54:23;0.00;;;0.00;;
57457;SDS011;43304;52.332;6.110;2022-07-29T02:56:53;0.00;;;0.00;;
57457;SDS011;43304;52.332;6.110;2022-07-29T02:59:23;0.00;;;0.00;;
57457;SDS011;43304;52.332;6.110;2022-07-29T03:01:52;0.00;;;0.00;;
57457;SDS011;43304;52.332;6.110;2022-07-29T03:04:21;0.00;;;0.00;;
57457;SDS011;43304;52.332;6.110;2022-07-29T03:06:51;0.00;;;0.00;;
57457;SDS011;43304;52.332;6.110;2022-07-29T03:09:19;0.00;;;0.00;;
57457;SDS011;43304;52.332;6.110;2022-07-29T03:11:47;0.00;;;0.00;;
57457;SDS011;43304;52.332;6.110;2022-07-29T03:14:19;0.00;;;0.00;;
57457;SDS011;43304;52.332;6.110;2022-07-29T03:16:47;0.00;;;0.00;;
57457;SDS011;43304;52.332;6.110;2022-07-29T03:19:14;0.00;;;0.00;;
57457;SDS011;43304;52.332;6.110;2022-07-29T03:21:41;0.00;;;0.00;;
57457;SDS011;43304;52.332;6.110;2022-07-29T03:24:08;0.00;;;0.00;;
57457;SDS011;43304;52.332;6.110;2022-07-29T03:26:36;0.00;;;0.00;;
57457;SDS011;43304;52.332;6.110;2022-07-29T03:29:03;0.00;;;0.00;;
57457;SDS011;43304;52.332;6.110;2022-07-29T03:31:34;0.00;;;0.00;;
57457;SDS011;43304;52.332;6.110;2022-07-29T03:34:01;0.00;;;0.00;;
57457;SDS011;43304;52.332;6.110;2022-07-29T03:36:28;0.00;;;0.00;;
57457;SDS011;43304;52.332;6.110;2022-07-29T03:38:55;0.00;;;0.00;;
57457;SDS011;43304;52.332;6.110;2022-07-29T03:41:22;0.00;;;0.00;;
57457;SDS011;43304;52.332;6.110;2022-07-29T03:43:50;0.00;;;0.00;;
57457;SDS011;43304;52.332;6.110;2022-07-29T03:46:18;0.10;;;0.10;;
57457;SDS011;43304;52.332;6.110;2022-07-29T03:48:48;0.10;;;0.10;;
57457;SDS011;43304;52.332;6.110;2022-07-29T03:51:17;0.00;;;0.00;;
57457;SDS011;43304;52.332;6.110;2022-07-29T03:53:59;0.00;;;0.00;;
57457;SDS011;43304;52.332;6.110;2022-07-29T03:56:29;0.00;;;0.00;;
57457;SDS011;43304;52.332;6.110;2022-07-29T03:58:59;0.00;;;0.00;;
57457;SDS011;43304;52.332;6.110;2022-07-29T04:01:28;0.00;;;0.00;;
57457;SDS011;43304;52.332;6.110;2022-07-29T04:03:56;0.00;;;0.00;;
57457;SDS011;43304;52.332;6.110;2022-07-29T04:06:25;0.10;;;0.10;;
57457;SDS011;43304;52.332;6.110;2022-07-29T04:08:52;0.00;;;0.00;;
57457;SDS011;43304;52.332;6.110;2022-07-29T04:11:19;0.00;;;0.00;;
57457;SDS011;43304;52.332;6.110;2022-07-29T04:13:46;0.00;;;0.00;;
57457;SDS011;43304;52.332;6.110;2022-07-29T04:16:13;0.00;;;0.00;;
57457;SDS011;43304;52.332;6.110;2022-07-29T04:18:40;0.00;;;0.00;;
57457;SDS011;43304;52.332;6.110;2022-07-29T04:21:07;0.00;;;0.00;;
57457;SDS011;43304;52.332;6.110;2022-07-29T04:23:34;0.00;;;0.00;;
57457;SDS011;43304;52.332;6.110;2022-07-29T04:26:19;0.00;;;0.00;;
57457;SDS011;43304;52.332;6.110;2022-07-29T04:28:46;0.00;;;0.00;;
57457;SDS011;43304;52.332;6.110;2022-07-29T04:31:13;0.00;;;0.00;;
57457;SDS011;43304;52.332;6.110;2022-07-29T04:33:41;0.00;;;0.00;;
57457;SDS011;43304;52.332;6.110;2022-07-29T04:36:08;0.00;;;0.00;;
57457;SDS011;43304;52.332;6.110;2022-07-29T04:38:55;0.00;;;0.00;;
57457;SDS011;43304;52.332;6.110;2022-07-29T04:41:22;0.00;;;0.00;;
57457;SDS011;43304;52.332;6.110;2022-07-29T04:43:58;0.00;;;0.00;;
57457;SDS011;43304;52.332;6.110;2022-07-29T04:46:27;0.00;;;0.00;;
57457;SDS011;43304;52.332;6.110;2022-07-29T04:48:54;0.00;;;0.00;;
57457;SDS011;43304;52.332;6.110;2022-07-29T04:51:22;0.00;;;0.00;;
57457;SDS011;43304;52.332;6.110;2022-07-29T04:53:49;0.00;;;0.00;;
57457;SDS011;43304;52.332;6.110;2022-07-29T04:56:15;0.00;;;0.00;;
57457;SDS011;43304;52.332;6.110;2022-07-29T04:58:42;0.00;;;0.00;;
57457;SDS011;43304;52.332;6.110;2022-07-29T05:01:09;0.00;;;0.00;;
57457;SDS011;43304;52.332;6.110;2022-07-29T05:03:37;0.00;;;0.00;;
57457;SDS011;43304;52.332;6.110;2022-07-29T05:06:04;0.00;;;0.00;;
57457;SDS011;43304;52.332;6.110;2022-07-29T05:08:30;0.00;;;0.00;;
57457;SDS011;43304;52.332;6.110;2022-07-29T05:10:57;0.00;;;0.00;;
57457;SDS011;43304;52.332;6.110;2022-07-29T05:13:37;0.00;;;0.00;;
57457;SDS011;43304;52.332;6.110;2022-07-29T05:16:13;0.00;;;0.00;;
57457;SDS011;43304;52.332;6.110;2022-07-29T05:18:41;0.00;;;0.00;;
57457;SDS011;43304;52.332;6.110;2022-07-29T05:21:08;0.00;;;0.00;;
57457;SDS011;43304;52.332;6.110;2022-07-29T05:23:35;0.00;;;0.00;;
57457;SDS011;43304;52.332;6.110;2022-07-29T05:26:02;0.00;;;0.00;;
57457;SDS011;43304;52.332;6.110;2022-07-29T05:28:32;0.00;;;0.00;;
57457;SDS011;43304;52.332;6.110;2022-07-29T05:31:00;0.00;;;0.00;;
57457;SDS011;43304;52.332;6.110;2022-07-29T05:33:27;0.47;;;0.35;;
57457;SDS011;43304;52.332;6.110;2022-07-29T05:36:03;0.00;;;0.00;;
57457;SDS011;43304;52.332;6.110;2022-07-29T05:38:33;0.00;;;0.00;;
57457;SDS011;43304;52.332;6.110;2022-07-29T05:41:00;0.00;;;0.00;;
57457;SDS011;43304;52.332;6.110;2022-07-29T05:43:28;0.00;;;0.00;;
57457;SDS011;43304;52.332;6.110;2022-07-29T05:45:55;0.00;;;0.00;;
57457;SDS011;43304;52.332;6.110;2022-07-29T05:48:22;0.00;;;0.00;;
57457;SDS011;43304;52.332;6.110;2022-07-29T05:50:49;0.00;;;0.00;;
57457;SDS011;43304;52.332;6.110;2022-07-29T05:53:16;0.00;;;0.00;;
57457;SDS011;43304;52.332;6.110;2022-07-29T05:55:46;0.00;;;0.00;;
57457;SDS011;43304;52.332;6.110;2022-07-29T05:58:16;0.00;;;0.00;;
57457;SDS011;43304;52.332;6.110;2022-07-29T06:00:43;0.00;;;0.00;;
57457;SDS011;43304;52.332;6.110;2022-07-29T06:03:10;0.00;;;0.00;;
57457;SDS011;43304;52.332;6.110;2022-07-29T06:05:37;0.00;;;0.00;;
57457;SDS011;43304;52.332;6.110;2022-07-29T06:08:04;0.00;;;0.00;;
57457;SDS011;43304;52.332;6.110;2022-07-29T06:10:35;0.00;;;0.00;;
57457;SDS011;43304;52.332;6.110;2022-07-29T06:13:02;0.00;;;0.00;;
57457;SDS011;43304;52.332;6.110;2022-07-29T06:15:29;0.00;;;0.00;;
57457;SDS011;43304;52.332;6.110;2022-07-29T06:17:56;0.00;;;0.00;;
57457;SDS011;43304;52.332;6.110;2022-07-29T06:20:29;0.00;;;0.00;;
57457;SDS011;43304;52.332;6.110;2022-07-29T06:22:58;0.00;;;0.00;;
57457;SDS011;43304;52.332;6.110;2022-07-29T06:25:25;0.00;;;0.00;;
57457;SDS011;43304;52.332;6.110;2022-07-29T06:27:52;0.00;;;0.00;;
57457;SDS011;43304;52.332;6.110;2022-07-29T06:30:19;0.00;;;0.00;;
57457;SDS011;43304;52.332;6.110;2022-07-29T06:32:46;0.00;;;0.00;;
57457;SDS011;43304;52.332;6.110;2022-07-29T06:35:13;0.20;;;0.20;;
57457;SDS011;43304;52.332;6.110;2022-07-29T06:38:01;0.00;;;0.00;;
57457;SDS011;43304;52.332;6.110;2022-07-29T06:40:35;0.00;;;0.00;;
57457;SDS011;43304;52.332;6.110;2022-07-29T06:43:20;0.00;;;0.00;;
57457;SDS011;43304;52.332;6.110;2022-07-29T06:45:48;0.00;;;0.00;;
57457;SDS011;43304;52.332;6.110;2022-07-29T06:48:15;0.00;;;0.00;;
57457;SDS011;43304;52.332;6.110;2022-07-29T06:50:42;0.00;;;0.00;;
57457;SDS011;43304;52.332;6.110;2022-07-29T06:53:09;0.00;;;0.00;;
57457;SDS011;43304;52.332;6.110;2022-07-29T06:55:36;0.10;;;0.10;;
57457;SDS011;43304;52.332;6.110;2022-07-29T06:58:03;0.00;;;0.00;;
57457;SDS011;43304;52.332;6.110;2022-07-29T07:00:30;0.00;;;0.00;;
57457;SDS011;43304;52.332;6.110;2022-07-29T07:02:57;0.00;;;0.00;;
57457;SDS011;43304;52.332;6.110;2022-07-29T07:05:24;0.00;;;0.00;;
57457;SDS011;43304;52.332;6.110;2022-07-29T07:07:51;0.00;;;0.00;;
57457;SDS011;43304;52.332;6.110;2022-07-29T07:10:18;0.00;;;0.00;;
57457;SDS011;43304;52.332;6.110;2022-07-29T07:12:45;0.00;;;0.00;;
57457;SDS011;43304;52.332;6.110;2022-07-29T07:15:12;0.00;;;0.00;;
57457;SDS011;43304;52.332;6.110;2022-07-29T07:17:39;0.00;;;0.00;;
57457;SDS011;43304;52.332;6.110;2022-07-29T07:20:06;0.10;;;0.10;;
57457;SDS011;43304;52.332;6.110;2022-07-29T07:22:34;0.00;;;0.00;;
57457;SDS011;43304;52.332;6.110;2022-07-29T07:25:04;0.00;;;0.00;;
57457;SDS011;43304;52.332;6.110;2022-07-29T07:27:32;0.00;;;0.00;;
57457;SDS011;43304;52.332;6.110;2022-07-29T07:29:59;0.00;;;0.00;;
57457;SDS011;43304;52.332;6.110;2022-07-29T07:32:26;0.00;;;0.00;;
57457;SDS011;43304;52.332;6.110;2022-07-29T07:34:53;0.00;;;0.00;;
57457;SDS011;43304;52.332;6.110;2022-07-29T07:37:20;0.00;;;0.00;;
57457;SDS011;43304;52.332;6.110;2022-07-29T07:39:47;0.00;;;0.00;;
57457;SDS011;43304;52.332;6.110;2022-07-29T07:42:14;0.00;;;0.00;;
57457;SDS011;43304;52.332;6.110;2022-07-29T07:44:41;0.00;;;0.00;;
57457;SDS011;43304;52.332;6.110;2022-07-29T07:47:28;0.00;;;0.00;;
57457;SDS011;43304;52.332;6.110;2022-07-29T07:49:55;0.00;;;0.00;;
57457;SDS011;43304;52.332;6.110;2022-07-29T07:52:22;0.00;;;0.00;;
57457;SDS011;43304;52.332;6.110;2022-07-29T07:54:49;0.00;;;0.00;;
57457;SDS011;43304;52.332;6.110;2022-07-29T07:57:16;0.00;;;0.00;;
57457;SDS011;43304;52.332;6.110;2022-07-29T07:59:43;0.00;;;0.00;;
57457;SDS011;43304;52.332;6.110;2022-07-29T08:02:10;0.00;;;0.00;;
57457;SDS011;43304;52.332;6.110;2022-07-29T08:04:37;0.00;;;0.00;;
57457;SDS011;43304;52.332;6.110;2022-07-29T08:07:07;0.00;;;0.00;;
57457;SDS011;43304;52.332;6.110;2022-07-29T08:09:35;0.00;;;0.00;;
57457;SDS011;43304;52.332;6.110;2022-07-29T08:12:02;0.00;;;0.00;;
57457;SDS011;43304;52.332;6.110;2022-07-29T08:14:30;0.00;;;0.00;;
57457;SDS011;43304;52.332;6.110;2022-07-29T08:16:58;0.00;;;0.00;;
57457;SDS011;43304;52.332;6.110;2022-07-29T08:19:25;0.00;;;0.00;;
57457;SDS011;43304;52.332;6.110;2022-07-29T08:21:52;0.00;;;0.00;;
57457;SDS011;43304;52.332;6.110;2022-07-29T08:24:21;0.00;;;0.00;;
57457;SDS011;43304;52.332;6.110;2022-07-29T08:27:07;0.20;;;0.20;;
57457;SDS011;43304;52.332;6.110;2022-07-29T08:29:54;0.00;;;0.00;;
57457;SDS011;43304;52.332;6.110;2022-07-29T08:32:22;0.00;;;0.00;;
57457;SDS011;43304;52.332;6.110;2022-07-29T08:35:09;0.00;;;0.00;;
57457;SDS011;43304;52.332;6.110;2022-07-29T08:37:36;0.00;;;0.00;;
57457;SDS011;43304;52.332;6.110;2022-07-29T08:40:03;0.10;;;0.10;;
57457;SDS011;43304;52.332;6.110;2022-07-29T08:42:33;0.00;;;0.00;;
57457;SDS011;43304;52.332;6.110;2022-07-29T08:45:00;0.00;;;0.00;;
57457;SDS011;43304;52.332;6.110;2022-07-29T08:47:27;0.00;;;0.00;;
57457;SDS011;43304;52.332;6.110;2022-07-29T08:49:54;0.00;;;0.00;;
57457;SDS011;43304;52.332;6.110;2022-07-29T08:52:22;0.00;;;0.00;;
57457;SDS011;43304;52.332;6.110;2022-07-29T08:54:52;0.00;;;0.00;;
57457;SDS011;43304;52.332;6.110;2022-07-29T08:57:21;0.00;;;0.00;;
57457;SDS011;43304;52.332;6.110;2022-07-29T08:59:49;0.00;;;0.00;;
57457;SDS011;43304;52.332;6.110;2022-07-29T09:02:20;0.00;;;0.00;;
57457;SDS011;43304;52.332;6.110;2022-07-29T09:04:48;0.00;;;0.00;;
57457;SDS011;43304;52.332;6.110;2022-07-29T09:07:17;0.00;;;0.00;;
57457;SDS011;43304;52.332;6.110;2022-07-29T09:09:44;0.00;;;0.00;;
57457;SDS011;43304;52.332;6.110;2022-07-29T09:12:12;0.00;;;0.00;;
57457;SDS011;43304;52.332;6.110;2022-07-29T09:14:55;0.00;;;0.00;;
57457;SDS011;43304;52.332;6.110;2022-07-29T09:17:41;0.00;;;0.00;;
57457;SDS011;43304;52.332;6.110;2022-07-29T09:20:13;0.00;;;0.00;;
57457;SDS011;43304;52.332;6.110;2022-07-29T09:22:44;0.10;;;0.10;;
57457;SDS011;43304;52.332;6.110;2022-07-29T09:28:18;0.00;;;0.00;;
57457;SDS011;43304;52.332;6.110;2022-07-29T09:30:55;0.00;;;0.00;;
57457;SDS011;43304;52.332;6.110;2022-07-29T09:33:30;0.00;;;0.00;;
57457;SDS011;43304;52.332;6.110;2022-07-29T09:38:32;0.00;;;0.00;;
57457;SDS011;43304;52.332;6.110;2022-07-29T09:41:01;0.00;;;0.00;;
57457;SDS011;43304;52.332;6.110;2022-07-29T09:43:32;0.00;;;0.00;;
57457;SDS011;43304;52.332;6.110;2022-07-29T09:46:09;0.00;;;0.00;;
57457;SDS011;43304;52.332;6.110;2022-07-29T09:48:38;0.00;;;0.00;;
57457;SDS011;43304;52.332;6.110;2022-07-29T09:51:05;0.00;;;0.00;;
57457;SDS011;43304;52.332;6.110;2022-07-29T09:53:47;0.00;;;0.00;;
57457;SDS011;43304;52.332;6.110;2022-07-29T09:56:14;0.00;;;0.00;;
57457;SDS011;43304;52.332;6.110;2022-07-29T09:58:41;0.00;;;0.00;;
57457;SDS011;43304;52.332;6.110;2022-07-29T10:01:08;0.00;;;0.00;;
57457;SDS011;43304;52.332;6.110;2022-07-29T10:03:54;0.00;;;0.00;;
57457;SDS011;43304;52.332;6.110;2022-07-29T10:06:21;0.00;;;0.00;;
57457;SDS011;43304;52.332;6.110;2022-07-29T10:08:48;0.00;;;0.00;;
57457;SDS011;43304;52.332;6.110;2022-07-29T10:11:16;0.10;;;0.10;;
57457;SDS011;43304;52.332;6.110;2022-07-29T10:13:47;0.00;;;0.00;;
57457;SDS011;43304;52.332;6.110;2022-07-29T10:16:15;0.00;;;0.00;;
57457;SDS011;43304;52.332;6.110;2022-07-29T10:18:43;0.00;;;0.00;;
57457;SDS011;43304;52.332;6.110;2022-07-29T10:21:10;0.00;;;0.00;;
57457;SDS011;43304;52.332;6.110;2022-07-29T10:23:57;0.00;;;0.00;;
57457;SDS011;43304;52.332;6.110;2022-07-29T10:26:27;0.00;;;0.00;;
57457;SDS011;43304;52.332;6.110;2022-07-29T10:28:55;0.00;;;0.00;;
57457;SDS011;43304;52.332;6.110;2022-07-29T10:31:26;0.00;;;0.00;;
57457;SDS011;43304;52.332;6.110;2022-07-29T10:34:01;0.00;;;0.00;;
57457;SDS011;43304;52.332;6.110;2022-07-29T10:36:38;0.00;;;0.00;;
57457;SDS011;43304;52.332;6.110;2022-07-29T10:42:19;0.00;;;0.00;;
57457;SDS011;43304;52.332;6.110;2022-07-29T10:44:59;0.05;;;0.05;;
57457;SDS011;43304;52.332;6.110;2022-07-29T10:47:26;0.00;;;0.00;;
57457;SDS011;43304;52.332;6.110;2022-07-29T10:50:03;0.00;;;0.00;;
57457;SDS011;43304;52.332;6.110;2022-07-29T10:55:35;0.00;;;0.00;;
57457;SDS011;43304;52.332;6.110;2022-07-29T10:58:26;0.00;;;0.00;;
57457;SDS011;43304;52.332;6.110;2022-07-29T11:00:53;0.00;;;0.00;;
57457;SDS011;43304;52.332;6.110;2022-07-29T11:06:16;0.00;;;0.00;;
57457;SDS011;43304;52.332;6.110;2022-07-29T11:11:45;0.00;;;0.00;;
57457;SDS011;43304;52.332;6.110;2022-07-29T11:14:18;0.00;;;0.00;;
57457;SDS011;43304;52.332;6.110;2022-07-29T11:17:04;0.00;;;0.00;;
57457;SDS011;43304;52.332;6.110;2022-07-29T11:19:33;0.00;;;0.00;;
57457;SDS011;43304;52.332;6.110;2022-07-29T11:22:01;0.00;;;0.00;;
57457;SDS011;43304;52.332;6.110;2022-07-29T11:24:29;0.00;;;0.00;;
57457;SDS011;43304;52.332;6.110;2022-07-29T11:27:05;0.00;;;0.00;;
57457;SDS011;43304;52.332;6.110;2022-07-29T11:29:47;0.00;;;0.00;;
57457;SDS011;43304;52.332;6.110;2022-07-29T11:32:38;0.00;;;0.00;;
57457;SDS011;43304;52.332;6.110;2022-07-29T11:35:11;0.00;;;0.00;;
57457;SDS011;43304;52.332;6.110;2022-07-29T11:37:44;0.00;;;0.00;;
57457;SDS011;43304;52.332;6.110;2022-07-29T11:40:20;0.00;;;0.00;;
57457;SDS011;43304;52.332;6.110;2022-07-29T11:42:48;0.00;;;0.00;;
57457;SDS011;43304;52.332;6.110;2022-07-29T11:45:18;2.30;;;1.60;;
57457;SDS011;43304;52.332;6.110;2022-07-29T11:48:07;2.97;;;1.38;;
57457;SDS011;43304;52.332;6.110;2022-07-29T11:50:54;5.35;;;1.80;;
57457;SDS011;43304;52.332;6.110;2022-07-29T11:53:23;3.15;;;1.70;;
57457;SDS011;43304;52.332;6.110;2022-07-29T11:55:54;5.90;;;1.40;;
57457;SDS011;43304;52.332;6.110;2022-07-29T11:58:24;5.32;;;1.80;;
57457;SDS011;43304;52.332;6.110;2022-07-29T12:00:53;7.40;;;2.00;;
57457;SDS011;43304;52.332;6.110;2022-07-29T12:03:25;4.55;;;2.03;;
57457;SDS011;43304;52.332;6.110;2022-07-29T12:06:01;7.90;;;1.35;;
57457;SDS011;43304;52.332;6.110;2022-07-29T12:08:29;4.05;;;1.77;;
57457;SDS011;43304;52.332;6.110;2022-07-29T12:10:56;2.58;;;1.80;;
57457;SDS011;43304;52.332;6.110;2022-07-29T12:13:23;2.53;;;1.67;;
57457;SDS011;43304;52.332;6.110;2022-07-29T12:16:03;4.20;;;1.40;;
57457;SDS011;43304;52.332;6.110;2022-07-29T12:18:31;7.45;;;1.38;;
57457;SDS011;43304;52.332;6.110;2022-07-29T12:20:58;2.83;;;1.40;;
57457;SDS011;43304;52.332;6.110;2022-07-29T12:23:31;2.17;;;1.20;;
57457;SDS011;43304;52.332;6.110;2022-07-29T12:26:04;2.25;;;1.20;;
57457;SDS011;43304;52.332;6.110;2022-07-29T12:28:36;2.38;;;1.30;;
57457;SDS011;43304;52.332;6.110;2022-07-29T12:31:04;4.75;;;1.15;;
57457;SDS011;43304;52.332;6.110;2022-07-29T12:33:34;3.00;;;1.08;;
57457;SDS011;43304;52.332;6.110;2022-07-29T12:36:02;2.00;;;1.40;;
57457;SDS011;43304;52.332;6.110;2022-07-29T12:38:39;4.00;;;1.23;;
57457;SDS011;43304;52.332;6.110;2022-07-29T12:41:06;2.58;;;1.48;;
57457;SDS011;43304;52.332;6.110;2022-07-29T12:43:33;2.10;;;1.27;;
57457;SDS011;43304;52.332;6.110;2022-07-29T12:46:11;3.25;;;1.20;;
57457;SDS011;43304;52.332;6.110;2022-07-29T12:48:40;1.55;;;1.00;;
57457;SDS011;43304;52.332;6.110;2022-07-29T12:51:09;2.72;;;1.65;;
57457;SDS011;43304;52.332;6.110;2022-07-29T12:53:38;3.13;;;1.40;;
57457;SDS011;43304;52.332;6.110;2022-07-29T12:56:05;1.85;;;0.95;;
57457;SDS011;43304;52.332;6.110;2022-07-29T12:58:52;3.80;;;1.15;;
57457;SDS011;43304;52.332;6.110;2022-07-29T13:01:19;2.97;;;1.50;;
57457;SDS011;43304;52.332;6.110;2022-07-29T13:03:48;3.78;;;1.23;;
57457;SDS011;43304;52.332;6.110;2022-07-29T13:06:27;1.83;;;1.10;;
57457;SDS011;43304;52.332;6.110;2022-07-29T13:09:08;2.65;;;1.00;;
57457;SDS011;43304;52.332;6.110;2022-07-29T13:15:00;4.05;;;1.17;;
57457;SDS011;43304;52.332;6.110;2022-07-29T13:17:13;4.47;;;1.52;;
57457;SDS011;43304;52.332;6.110;2022-07-29T13:19:44;2.42;;;1.30;;
57457;SDS011;43304;52.332;6.110;2022-07-29T13:22:13;1.52;;;1.00;;
57457;SDS011;43304;52.332;6.110;2022-07-29T13:24:55;2.83;;;1.02;;
57457;SDS011;43304;52.332;6.110;2022-07-29T13:27:26;2.55;;;1.08;;
57457;SDS011;43304;52.332;6.110;2022-07-29T13:30:00;4.60;;;1.20;;
57457;SDS011;43304;52.332;6.110;2022-07-29T13:32:28;3.63;;;1.20;;
57457;SDS011;43304;52.332;6.110;2022-07-29T13:34:56;2.97;;;1.30;;
57457;SDS011;43304;52.332;6.110;2022-07-29T13:37:31;2.65;;;1.40;;
57457;SDS011;43304;52.332;6.110;2022-07-29T13:40:01;3.00;;;1.40;;
57457;SDS011;43304;52.332;6.110;2022-07-29T13:42:29;2.63;;;1.40;;
57457;SDS011;43304;52.332;6.110;2022-07-29T13:44:57;4.97;;;1.20;;
57457;SDS011;43304;52.332;6.110;2022-07-29T13:47:25;3.78;;;1.23;;
57457;SDS011;43304;52.332;6.110;2022-07-29T13:49:59;1.75;;;1.23;;
57457;SDS011;43304;52.332;6.110;2022-07-29T13:52:27;3.15;;;1.38;;
57457;SDS011;43304;52.332;6.110;2022-07-29T13:54:54;1.77;;;1.20;;
57457;SDS011;43304;52.332;6.110;2022-07-29T13:57:21;2.53;;;1.17;;
57457;SDS011;43304;52.332;6.110;2022-07-29T13:59:48;3.47;;;1.50;;
57457;SDS011;43304;52.332;6.110;2022-07-29T14:02:20;2.38;;;1.17;;
57457;SDS011;43304;52.332;6.110;2022-07-29T14:04:52;3.42;;;1.30;;
57457;SDS011;43304;52.332;6.110;2022-07-29T14:07:21;3.13;;;1.42;;
57457;SDS011;43304;52.332;6.110;2022-07-29T14:09:48;3.03;;;1.27;;
57457;SDS011;43304;52.332;6.110;2022-07-29T14:12:15;1.98;;;1.13;;
57457;SDS011;43304;52.332;6.110;2022-07-29T14:14:42;2.55;;;1.40;;
57457;SDS011;43304;52.332;6.110;2022-07-29T14:17:09;2.92;;;1.10;;
57457;SDS011;43304;52.332;6.110;2022-07-29T14:19:36;4.20;;;1.25;;
57457;SDS011;43304;52.332;6.110;2022-07-29T14:22:05;2.83;;;1.20;;
57457;SDS011;43304;52.332;6.110;2022-07-29T14:24:35;2.15;;;1.15;;
57457;SDS011;43304;52.332;6.110;2022-07-29T14:27:03;5.93;;;1.10;;
57457;SDS011;43304;52.332;6.110;2022-07-29T14:29:32;1.75;;;1.10;;
57457;SDS011;43304;52.332;6.110;2022-07-29T14:32:07;3.63;;;1.10;;
57457;SDS011;43304;52.332;6.110;2022-07-29T14:34:38;5.78;;;1.10;;
57457;SDS011;43304;52.332;6.110;2022-07-29T14:37:06;7.35;;;1.42;;
57457;SDS011;43304;52.332;6.110;2022-07-29T14:39:34;6.32;;;1.17;;
57457;SDS011;43304;52.332;6.110;2022-07-29T14:42:09;4.82;;;1.40;;
57457;SDS011;43304;52.332;6.110;2022-07-29T14:44:38;3.03;;;1.45;;
57457;SDS011;43304;52.332;6.110;2022-07-29T14:47:10;2.22;;;1.20;;
57457;SDS011;43304;52.332;6.110;2022-07-29T14:49:37;3.30;;;1.23;;
57457;SDS011;43304;52.332;6.110;2022-07-29T14:52:04;2.35;;;1.17;;
57457;SDS011;43304;52.332;6.110;2022-07-29T14:54:31;5.25;;;1.25;;
57457;SDS011;43304;52.332;6.110;2022-07-29T14:56:58;1.58;;;1.08;;
57457;SDS011;43304;52.332;6.110;2022-07-29T14:59:25;2.40;;;1.30;;
57457;SDS011;43304;52.332;6.110;2022-07-29T15:01:52;4.90;;;1.42;;
57457;SDS011;43304;52.332;6.110;2022-07-29T15:04:20;4.13;;;1.30;;
57457;SDS011;43304;52.332;6.110;2022-07-29T15:06:47;5.25;;;1.30;;
57457;SDS011;43304;52.332;6.110;2022-07-29T15:09:14;6.35;;;1.50;;
57457;SDS011;43304;52.332;6.110;2022-07-29T15:11:41;5.82;;;1.90;;
57457;SDS011;43304;52.332;6.110;2022-07-29T15:14:08;2.63;;;1.50;;
57457;SDS011;43304;52.332;6.110;2022-07-29T15:16:38;2.33;;;1.40;;
57457;SDS011;43304;52.332;6.110;2022-07-29T15:19:12;4.00;;;1.40;;
57457;SDS011;43304;52.332;6.110;2022-07-29T15:21:39;3.20;;;1.30;;
57457;SDS011;43304;52.332;6.110;2022-07-29T15:24:13;5.97;;;1.58;;
57457;SDS011;43304;52.332;6.110;2022-07-29T15:26:41;3.65;;;1.58;;
57457;SDS011;43304;52.332;6.110;2022-07-29T15:29:09;7.00;;;1.42;;
57457;SDS011;43304;52.332;6.110;2022-07-29T15:31:36;4.70;;;1.50;;